Hovedside
METAR-TAF:

METAR-TAF

Lufthavner :

Kuwait, Kuwait

breddegrad: 29-13N, lengdegrad: 047-59E, høyde over havet: 55 m

Gjeldene værobservasjon

Denne rapporten ble laget for 1 time og 1 minutter siden, klokken 03:00 UTC
Flau vind
Temperatur 27°C
Luftfuktighet 94%
Trykk 1006 hPa
Sikt: 4500 m
dis

METAR: OKBK 200300Z 00000KT 4500 BR NSC 27/26 Q1006 NOSIG

Tid: 07:01 (04:01 UTC)

Varsel

Denne rapporten ble laget for 5 timer og 16 minutter siden, klokken 22:45 UTC
Varsel gyldig fra 20. klokken 00 UTC til 21. klokken 06 UTC
Vind 3 kt fra skiftende retning
Sikt: 6000 m
Skyfri himmel
Midlertidig
fra 20. klokken 00 UTC til 20. klokken 05 UTC
Sikt: 2000 m
dis

TAF: OKBK 192245Z 2000/2106 VRB03KT 6000 SKC TEMPO 2000/2005 2000 BR

Værobservasjoner og værvarsel for over 4000 flyplasser (METAR- og TAF-rapporter).

Tilgjengelige stasjoner er representert av de røde og gule prikkene på kartet.

Hold musepekeren over prikken for å se navnet på stasjonen.

Klikk så for å se værobservasjoner og -varsler.

For å forandre kartet kan du klikke på den grønne knappen med svart kryss for å zoome inn, på den grønne knappen med strek for å zoome ut, eller på de grønne pilene for å se tilstøtende kart.


METAR-TAF: